Search for airport 
image banner adimage banner adimage banner ad
image banner ad

KCNO - Chino

Located in Chino, United States

ICAO - CNO, IATA - CNO

Data provided by Airmate  

General information

Coordinates: N33°58'29" W117°38'11"
Elevation is 650 feet MSL.
Magnetic variation is 14° East
View others Airports in California

Operational data

Special qualification required
Current time UTC:
Current local time:
Weather
METAR: KCNO 240853Z AUTO 30004KT 10SM CLR 18/14 A3001 RMK AO2 SLP156 T01780139 50000
View NOTAMs / SUP AIP / TFR affecting this airport [VIEW]
Communications frequencies: [VIEW]

Runways:

RWY identifierQFULength (ft)Width (ft)SurfaceLDA (ft)
0344°4919150ASPH
21224°4919150ASPH
08R89°7000150ASPH
26L269°7000150ASPH
08L89°4858150ASPH
26R269°4858150ASPH

Airport contact information

Address: Chino United States

Other aviation service providers

Flight schools

Alliance International Aviation

Alliance International Aviation
office@aiaflight.com+1(909)606-0747

Duke's Flying Club

Duke's Flying Club
dukes99@verizon.net+1(714)994-4299

Du Bois Aviation

Du Bois Aviation

Satellite view of KCNO